Canefield Airport

Partly cloudy
32oC (90oF)

Partly cloudy


Winds: West south westerly @ 02kts / 04km/h

Humidity: 59%

Barometric Pressure: 1011 mb

Accumulated Rainfall for April: 24.8 mm

Updated: 14:00 local time (19:00 UTC)

Douglas-Charles Airport

Cloudy with adjacent showers
28oC (82oF)

Cloudy with adjacent showers


Winds: East south easterly @ 08kts / 15km/h

Humidity: 75%

Barometric Pressure: 1014 mb

Accumulated Rainfall for April: 125.7 mm

Updated: 15:00 local time (19:00 UTC)

Satellite Imagery

Satellite Imagery
Click image for larger view. (Source: National Hurricane Center).

Aviation Routine Report (METAR)

Douglas-Charles: METAR TDPD 261900Z 11008KT 9999 BKN016 28/23 Q1014=
Canefield: METAR TDCF 261900Z 24002KT 9999 SCT018 32/23 Q1011=